Effingham, South Carolina
Current Conditions -  °F | °C
As of 10:53 AM on Friday 31 Oct 2014 (Local Time) from KFLO Reporting Station
Clear Clear  
Wind Chill: 58°   Ceiling: Unl
Heat Index: 58°   Visibility: 10mi
Dew Point: 47°   Wind: 3mph
Humidity: 67%   Direction: 10°N
Pressure: 29.92"   Gusts: NA
Location:  34.07°N, 79.76°W
Report Text: KFLO 311453Z 01003KT 10SM CLR 14/08 A2992 RMK AO2 SLP131 T01440083 50000
Loading
Personal Weather Stations






























Interactive Weather Map
Tropical Storm Tracking
New forecast layout! Learn more

10-Day Weather Forecast

Advertisements
Track Severe Weather on mobile